createdAt,value
2018-12-30T00:00:23.037Z,101141.98
2018-12-30T00:03:38.731Z,101151.66
2018-12-30T00:06:53.989Z,101156.09
2018-12-30T00:10:09.390Z,101154.28
2018-12-30T00:13:24.706Z,101173.59
2018-12-30T00:16:40.097Z,101174.92
2018-12-30T00:19:54.526Z,101160.44
2018-12-30T00:23:17.255Z,101164.38
2018-12-30T00:26:32.422Z,101188.52
2018-12-30T00:29:47.650Z,101184.12
2018-12-30T00:33:02.889Z,101187.66
2018-12-30T00:36:18.453Z,101196.86
2018-12-30T00:39:33.456Z,101202.13
2018-12-30T00:42:48.669Z,101217.52
2018-12-30T00:46:02.102Z,101213.98
2018-12-30T00:49:24.785Z,101220.14
2018-12-30T00:52:40.230Z,101230.67
2018-12-30T00:55:53.906Z,101227.57
2018-12-30T00:59:16.247Z,101243.39
2018-12-30T01:02:31.499Z,101237.27
2018-12-30T01:05:46.912Z,101242.94
2018-12-30T01:09:02.361Z,101256.99
2018-12-30T01:12:16.072Z,101257.83
2018-12-30T01:15:38.417Z,101257.84
2018-12-30T01:18:53.864Z,101270.08
2018-12-30T01:22:07.522Z,101279.30
2018-12-30T01:25:30.019Z,101276.28
2018-12-30T01:28:46.054Z,101272.69
2018-12-30T01:32:02.034Z,101282.36
2018-12-30T01:35:24.431Z,101287.19
2018-12-30T01:38:39.621Z,101286.73
2018-12-30T01:41:55.053Z,101221.27
2018-12-30T01:45:17.440Z,101320.04
2018-12-30T01:48:32.869Z,101319.59
2018-12-30T01:51:55.861Z,101330.21
2018-12-30T01:55:11.145Z,101331.03
2018-12-30T01:58:34.262Z,101340.65
2018-12-30T02:02:11.378Z,101240.91
2018-12-30T02:05:33.756Z,101336.70
2018-12-30T02:08:49.537Z,101301.64
2018-12-30T02:12:12.599Z,101346.31
2018-12-30T02:15:35.062Z,101352.02
2018-12-30T02:18:57.459Z,101304.13
2018-12-30T02:22:21.462Z,101377.88
2018-12-30T02:25:44.045Z,101267.06
2018-12-30T02:29:21.600Z,101383.62
2018-12-30T02:32:37.586Z,101366.36
2018-12-30T02:35:52.701Z,101384.45
2018-12-30T02:39:09.202Z,101397.21
2018-12-30T02:42:31.906Z,101393.81
2018-12-30T02:45:47.560Z,101407.90
2018-12-30T02:49:03.005Z,101401.67
2018-12-30T02:52:26.062Z,101414.46
2018-12-30T02:55:41.373Z,101409.19
2018-12-30T02:59:03.767Z,101407.95
2018-12-30T03:02:19.948Z,101412.33
2018-12-30T03:05:42.456Z,101347.42
2018-12-30T03:08:58.436Z,101407.88
2018-12-30T03:12:21.104Z,101407.92
2018-12-30T03:15:37.294Z,101421.93
2018-12-30T03:18:59.997Z,101428.05
2018-12-30T03:22:15.329Z,101425.93
2018-12-30T03:25:37.844Z,101337.45
2018-12-30T03:28:53.260Z,101436.41
2018-12-30T03:32:09.250Z,101432.03
2018-12-30T03:35:24.669Z,101433.77
2018-12-30T03:38:47.364Z,101440.77
2018-12-30T03:42:03.204Z,101427.06
2018-12-30T03:45:25.937Z,101442.59
2018-12-30T03:48:41.861Z,101447.80
2018-12-30T03:51:57.707Z,101387.69
2018-12-30T03:55:20.402Z,101456.21
2018-12-30T03:58:36.461Z,101367.81
2018-12-30T04:01:59.077Z,101438.00
2018-12-30T04:05:15.488Z,101456.16
2018-12-30T04:08:37.871Z,101453.50
2018-12-30T04:11:52.959Z,101453.07
2018-12-30T04:15:16.356Z,101355.77
2018-12-30T04:18:31.614Z,101460.19
2018-12-30T04:21:54.040Z,101457.02
2018-12-30T04:25:09.974Z,101471.56
2018-12-30T04:28:32.394Z,101385.69
2018-12-30T04:31:48.120Z,101473.30
2018-12-30T04:35:04.552Z,101482.06
2018-12-30T04:38:19.806Z,101489.56
2018-12-30T04:41:42.478Z,101399.81
2018-12-30T04:44:58.324Z,101482.92
2018-12-30T04:48:13.715Z,101476.25
2018-12-30T04:51:36.375Z,101495.27
2018-12-30T04:54:52.374Z,101497.95
2018-12-30T04:58:15.058Z,101508.52
2018-12-30T05:01:30.911Z,101495.52
2018-12-30T05:04:53.664Z,101516.36
2018-12-30T05:08:09.160Z,101512.80
2018-12-30T05:11:32.143Z,101521.99
2018-12-30T05:14:47.303Z,101540.43
2018-12-30T05:18:09.702Z,101461.28
2018-12-30T05:21:25.250Z,101524.23
2018-12-30T05:24:47.634Z,101535.25
2018-12-30T05:28:03.635Z,101480.03
2018-12-30T05:31:18.929Z,101488.27
2018-12-30T05:34:34.340Z,101489.59
2018-12-30T05:37:57.107Z,101521.99
2018-12-30T05:41:12.759Z,101543.92
2018-12-30T05:44:29.000Z,101532.56
2018-12-30T05:47:51.411Z,101523.28
2018-12-30T05:51:06.890Z,101526.80
2018-12-30T05:54:29.911Z,101515.38
2018-12-30T05:57:45.565Z,101534.25
2018-12-30T06:01:08.580Z,101534.30
2018-12-30T06:04:23.960Z,101561.13
2018-12-30T06:07:46.394Z,101547.41
2018-12-30T06:11:01.612Z,101507.98
2018-12-30T06:14:24.298Z,101550.11
2018-12-30T06:17:40.071Z,101532.96
2018-12-30T06:21:02.476Z,101553.14
2018-12-30T06:24:17.843Z,101568.11
2018-12-30T06:27:40.580Z,101577.70
2018-12-30T06:30:56.201Z,101566.30
2018-12-30T06:34:11.452Z,101565.72
2018-12-30T06:37:34.547Z,101505.03
2018-12-30T06:40:49.827Z,101505.43
2018-12-30T06:44:04.900Z,101599.19
2018-12-30T06:47:19.951Z,101587.83
2018-12-30T06:50:42.984Z,101584.25
2018-12-30T06:58:26.337Z,101588.27
2018-12-30T07:01:41.389Z,101600.54
2018-12-30T07:04:56.526Z,101531.02
2018-12-30T07:08:11.831Z,101599.66
2018-12-30T07:11:34.517Z,101618.18
2018-12-30T07:14:50.057Z,101615.95
2018-12-30T07:18:12.482Z,101619.77
2018-12-30T07:21:28.011Z,101629.54
2018-12-30T07:24:43.101Z,101623.38
2018-12-30T07:28:05.805Z,101629.14
2018-12-30T07:31:21.912Z,101603.83
2018-12-30T07:34:36.981Z,101626.08
2018-12-30T07:37:52.481Z,101621.67
2018-12-30T07:41:14.873Z,101528.61
2018-12-30T07:44:31.040Z,101615.52
2018-12-30T07:47:53.417Z,101547.62
2018-12-30T07:51:09.332Z,101622.50
2018-12-30T07:54:32.596Z,101630.46
2018-12-30T07:57:48.501Z,101620.78
2018-12-30T08:01:04.028Z,101626.12
2018-12-30T08:04:27.148Z,101637.05
2018-12-30T08:07:43.437Z,101644.52
2018-12-30T08:11:06.137Z,101642.18
2018-12-30T08:14:22.379Z,101652.78
2018-12-30T08:17:44.752Z,101565.02
2018-12-30T08:21:00.192Z,101649.72
2018-12-30T08:24:23.197Z,101653.28
2018-12-30T08:27:38.738Z,101656.83
2018-12-30T08:31:01.133Z,101666.05
2018-12-30T08:34:17.341Z,101659.99
2018-12-30T08:37:39.757Z,101653.70
2018-12-30T08:40:55.413Z,101641.45
2018-12-30T08:44:17.793Z,101661.73
2018-12-30T08:47:33.208Z,101656.34
2018-12-30T08:50:55.919Z,101663.34
2018-12-30T08:54:12.141Z,101669.14
2018-12-30T08:57:34.533Z,101672.14
2018-12-30T09:00:50.756Z,101639.45
2018-12-30T09:04:13.146Z,101669.61
2018-12-30T09:07:28.209Z,101624.08
2018-12-30T09:10:51.265Z,101666.64
2018-12-30T09:14:06.633Z,101617.06
2018-12-30T09:17:29.029Z,101653.20
2018-12-30T09:20:44.231Z,101617.81
2018-12-30T09:23:59.488Z,101649.73
2018-12-30T09:27:22.200Z,101645.51
2018-12-30T09:30:37.198Z,101648.42
2018-12-30T09:33:52.597Z,101642.17
2018-12-30T09:37:15.250Z,101648.82
2018-12-30T09:40:29.047Z,101659.66
2018-12-30T09:43:51.433Z,101661.11
2018-12-30T09:47:09.268Z,101591.72
2018-12-30T09:50:24.888Z,101673.30
2018-12-30T09:53:47.277Z,101672.27
2018-12-30T09:57:02.834Z,101676.31
2018-12-30T10:00:18.474Z,101674.40
2018-12-30T10:03:41.548Z,101669.16
2018-12-30T10:06:56.976Z,101693.19
2018-12-30T10:10:19.388Z,101708.27
2018-12-30T10:13:34.857Z,101717.77
2018-12-30T10:16:57.507Z,101721.44
2018-12-30T10:20:12.958Z,101724.08
2018-12-30T10:23:36.649Z,101655.73
2018-12-30T10:26:52.521Z,101735.14
2018-12-30T10:30:15.482Z,101730.20
2018-12-30T10:33:33.043Z,101726.80
2018-12-30T10:36:55.884Z,101691.80
2018-12-30T10:40:11.320Z,101712.28
2018-12-30T10:47:29.667Z,101705.78
2018-12-30T10:50:45.763Z,101696.23
2018-12-30T10:54:08.151Z,101690.70
2018-12-30T10:57:23.421Z,101691.23
2018-12-30T11:00:45.847Z,101695.58
2018-12-30T11:04:01.918Z,101693.70
2018-12-30T11:07:18.982Z,101685.13
2018-12-30T11:10:41.757Z,101654.67
2018-12-30T11:13:57.651Z,101592.36
2018-12-30T11:17:20.051Z,101678.78
2018-12-30T11:20:35.073Z,101688.44
2018-12-30T11:23:58.231Z,101679.64
2018-12-30T11:27:14.330Z,101584.12
2018-12-30T11:30:37.055Z,101669.58
2018-12-30T11:33:52.613Z,101611.14
2018-12-30T11:37:15.079Z,101673.56
2018-12-30T11:40:30.180Z,101665.62
2018-12-30T11:43:52.585Z,101665.66
2018-12-30T11:47:08.027Z,101656.40
2018-12-30T11:50:30.749Z,101664.31
2018-12-30T11:53:46.497Z,101668.03
2018-12-30T11:57:09.184Z,101662.02
2018-12-30T12:00:25.010Z,101663.67
2018-12-30T12:03:47.401Z,101672.94
2018-12-30T12:07:02.570Z,101652.06
2018-12-30T12:10:24.959Z,101659.75
2018-12-30T12:13:40.417Z,101650.92
2018-12-30T12:17:03.172Z,101597.53
2018-12-30T12:20:18.833Z,101638.75
2018-12-30T12:23:41.217Z,101591.43
2018-12-30T12:26:57.104Z,101628.74
2018-12-30T12:30:12.530Z,101616.20
2018-12-30T12:33:27.741Z,101631.16
2018-12-30T12:36:42.929Z,101630.81
2018-12-30T12:39:58.153Z,101642.30
2018-12-30T12:43:20.548Z,101593.00
2018-12-30T12:46:35.988Z,101640.38
2018-12-30T12:49:58.752Z,101644.34
2018-12-30T12:53:14.346Z,101643.51
2018-12-30T12:56:36.739Z,101645.66
2018-12-30T12:59:52.048Z,101645.14
2018-12-30T13:03:14.421Z,101644.77
2018-12-30T13:06:29.523Z,101644.70
2018-12-30T13:09:51.901Z,101644.45
2018-12-30T13:13:07.857Z,101642.33
2018-12-30T13:16:30.262Z,101641.09
2018-12-30T13:19:46.025Z,101653.19
2018-12-30T13:23:08.744Z,101655.80
2018-12-30T13:26:23.984Z,101648.31
2018-12-30T13:29:46.382Z,101666.48
2018-12-30T13:33:01.863Z,101663.96
2018-12-30T13:36:24.630Z,101629.64
2018-12-30T13:39:40.399Z,101597.88
2018-12-30T13:43:03.090Z,101662.10
2018-12-30T13:46:18.260Z,101660.64
2018-12-30T13:49:33.573Z,101683.84
2018-12-30T13:52:56.303Z,101683.27
2018-12-30T13:56:11.594Z,101680.53
2018-12-30T13:59:26.966Z,101675.69
2018-12-30T14:02:49.411Z,101667.63
2018-12-30T14:06:04.374Z,101667.17
2018-12-30T14:09:19.717Z,101664.44
2018-12-30T14:12:42.108Z,101656.14
2018-12-30T14:15:57.583Z,101606.00
2018-12-30T14:19:13.461Z,101663.61
2018-12-30T14:22:35.826Z,101640.76
2018-12-30T14:25:51.071Z,101675.48
2018-12-30T14:29:14.113Z,101674.86
2018-12-30T14:32:31.409Z,101663.55
2018-12-30T14:35:47.124Z,101660.98
2018-12-30T14:39:10.181Z,101657.40
2018-12-30T14:42:25.949Z,101648.45
2018-12-30T14:45:41.023Z,101645.84
2018-12-30T14:49:03.728Z,101651.12
2018-12-30T14:52:20.066Z,101594.84
2018-12-30T14:55:42.481Z,101664.69
2018-12-30T14:58:58.600Z,101620.88
2018-12-30T15:02:20.992Z,101652.41
2018-12-30T15:05:36.942Z,101649.58
2018-12-30T15:08:40.560Z,101662.30
2018-12-30T15:11:57.308Z,101660.95
2018-12-30T15:15:20.004Z,101611.86
2018-12-30T15:18:35.813Z,101671.05
2018-12-30T15:21:51.149Z,101674.91
2018-12-30T15:25:13.927Z,101680.64
2018-12-30T15:28:29.809Z,101664.07
2018-12-30T15:31:33.088Z,101654.63
2018-12-30T15:34:48.478Z,101647.25
2018-12-30T15:38:10.887Z,101644.19
2018-12-30T15:41:26.665Z,101647.31
2018-12-30T15:44:49.038Z,101641.98
2018-12-30T15:48:04.057Z,101648.20
2018-12-30T15:51:26.442Z,101643.82
2018-12-30T15:54:41.551Z,101580.11
2018-12-30T15:57:57.154Z,101629.67
2018-12-30T16:01:00.072Z,101620.39
2018-12-30T16:04:15.541Z,101613.41
2018-12-30T16:07:37.916Z,101602.11
2018-12-30T16:10:53.449Z,101604.67
2018-12-30T16:14:09.320Z,101589.27
2018-12-30T16:17:31.992Z,101526.28
2018-12-30T16:20:47.296Z,101573.75
2018-12-30T16:24:09.683Z,101576.13
2018-12-30T16:27:25.079Z,101573.50
2018-12-30T16:30:47.476Z,101569.86
2018-12-30T16:34:02.748Z,101590.62
2018-12-30T16:37:26.435Z,101587.92
2018-12-30T16:40:42.709Z,101599.84
2018-12-30T16:44:05.095Z,101596.23
2018-12-30T16:47:21.043Z,101606.36
2018-12-30T16:50:36.377Z,101593.50
2018-12-30T16:53:58.751Z,101603.76
2018-12-30T16:57:14.393Z,101602.80
2018-12-30T17:00:36.780Z,101594.63
2018-12-30T17:03:52.114Z,101603.09
2018-12-30T17:07:07.438Z,101578.61
2018-12-30T17:10:29.818Z,101597.20
2018-12-30T17:13:45.739Z,101601.16
2018-12-30T17:17:08.202Z,101601.43
2018-12-30T17:20:24.420Z,101588.27
2018-12-30T17:23:47.094Z,101586.84
2018-12-30T17:27:02.754Z,101600.17
2018-12-30T17:30:25.441Z,101596.20
2018-12-30T17:33:41.312Z,101596.23
2018-12-30T17:37:03.707Z,101517.92
2018-12-30T17:40:19.930Z,101594.08
2018-12-30T17:43:42.421Z,101582.29
2018-12-30T17:46:58.455Z,101562.45
2018-12-30T17:50:13.588Z,101566.80
2018-12-30T17:53:35.985Z,101569.83
2018-12-30T17:56:51.613Z,101562.87
2018-12-30T18:00:07.170Z,101517.72
2018-12-30T18:03:30.461Z,101567.28
2018-12-30T18:06:46.705Z,101508.75
2018-12-30T18:10:02.622Z,101580.33
2018-12-30T18:13:25.405Z,101530.42
2018-12-30T18:16:40.870Z,101567.62
2018-12-30T18:20:03.497Z,101576.08
2018-12-30T18:23:19.285Z,101576.41
2018-12-30T18:26:41.661Z,101572.09
2018-12-30T18:29:56.717Z,101545.61
2018-12-30T18:33:11.964Z,101587.92
2018-12-30T18:36:27.491Z,101596.78
2018-12-30T18:39:50.247Z,101530.88
2018-12-30T18:43:05.656Z,101594.94
2018-12-30T18:46:20.778Z,101590.56
2018-12-30T18:49:43.970Z,101580.88
2018-12-30T18:52:59.705Z,101586.23
2018-12-30T18:56:22.119Z,101586.64
2018-12-30T18:59:38.321Z,101592.80
2018-12-30T19:03:00.817Z,101590.53
2018-12-30T19:06:16.250Z,101587.38
2018-12-30T19:09:38.993Z,101587.47
2018-12-30T19:12:54.817Z,101576.53
2018-12-30T19:16:17.318Z,101580.98
2018-12-30T19:19:33.253Z,101543.86
2018-12-30T19:22:36.211Z,101572.70
2018-12-30T19:25:40.001Z,101563.56
2018-12-30T19:28:42.901Z,101565.31
2018-12-30T19:31:45.829Z,101560.45
2018-12-30T19:34:48.748Z,101556.52
2018-12-30T19:37:51.658Z,101560.84
2018-12-30T19:40:54.563Z,101562.68
2018-12-30T19:43:57.515Z,101570.59
2018-12-30T19:47:00.432Z,101576.31
2018-12-30T19:50:03.538Z,101577.59
2018-12-30T19:53:06.484Z,101581.55
2018-12-30T19:56:09.384Z,101577.20
2018-12-30T19:59:13.016Z,101584.19
2018-12-30T20:02:15.918Z,101577.23
2018-12-30T20:05:18.862Z,101578.06
2018-12-30T20:08:21.864Z,101572.81
2018-12-30T20:11:24.767Z,101567.09
2018-12-30T20:14:28.028Z,101568.44
2018-12-30T20:17:31.338Z,101576.80
2018-12-30T20:20:34.934Z,101568.41
2018-12-30T20:23:37.942Z,101562.25
2018-12-30T20:26:41.242Z,101571.90
2018-12-30T20:29:44.570Z,101572.41
2018-12-30T20:32:47.488Z,101556.61
2018-12-30T20:35:50.554Z,101559.36
2018-12-30T20:38:53.791Z,101551.34
2018-12-30T20:41:56.720Z,101551.80
2018-12-30T20:44:59.663Z,101550.02
2018-12-30T20:48:02.849Z,101545.19
2018-12-30T20:51:05.773Z,101538.68
2018-12-30T20:54:09.081Z,101529.45
2018-12-30T20:57:12.345Z,101537.78
2018-12-30T21:00:15.610Z,101533.03
2018-12-30T21:03:19.464Z,101533.38
2018-12-30T21:06:22.395Z,101525.09
2018-12-30T21:09:26.350Z,101525.12
2018-12-30T21:12:29.278Z,101519.40
2018-12-30T21:15:32.217Z,101522.06
2018-12-30T21:18:35.439Z,101520.34
2018-12-30T21:21:38.359Z,101517.70
2018-12-30T21:24:41.428Z,101519.02
2018-12-30T21:27:45.759Z,101518.08
2018-12-30T21:30:48.664Z,101511.11
2018-12-30T21:33:51.899Z,101514.58
2018-12-30T21:36:54.913Z,101512.00
2018-12-30T21:39:58.095Z,101517.75
2018-12-30T21:43:01.330Z,101508.48
2018-12-30T21:46:04.570Z,101500.98
2018-12-30T21:49:07.590Z,101502.32
2018-12-30T21:52:10.949Z,101500.55
2018-12-30T21:55:15.778Z,101501.05
2018-12-30T21:58:18.696Z,101501.02
2018-12-30T22:01:21.606Z,101498.52
2018-12-30T22:04:24.634Z,101499.73
2018-12-30T22:07:28.253Z,101507.18
2018-12-30T22:10:31.178Z,101504.97
2018-12-30T22:13:34.112Z,101512.89
2018-12-30T22:16:37.026Z,101522.10
2018-12-30T22:19:39.975Z,101523.88
2018-12-30T22:22:43.199Z,101526.06
2018-12-30T22:25:46.158Z,101522.59
2018-12-30T22:28:49.392Z,101521.54
2018-12-30T22:31:52.678Z,101520.94
2018-12-30T22:34:55.587Z,101523.19
2018-12-30T22:37:58.508Z,101529.25
2018-12-30T22:41:01.504Z,101527.53
2018-12-30T22:44:04.840Z,101534.95
2018-12-30T22:47:07.762Z,101532.72
2018-12-30T22:50:11.053Z,101536.70
2018-12-30T22:53:14.311Z,101534.48
2018-12-30T22:56:17.604Z,101531.89
2018-12-30T22:59:20.515Z,101533.64
2018-12-30T23:02:24.098Z,101529.69
2018-12-30T23:05:28.476Z,101523.09
2018-12-30T23:08:31.391Z,101529.70
2018-12-30T23:11:34.303Z,101523.09
2018-12-30T23:14:37.642Z,101525.27
2018-12-30T23:17:40.563Z,101527.48
2018-12-30T23:20:43.890Z,101518.66
2018-12-30T23:23:46.825Z,101516.91
2018-12-30T23:26:50.136Z,101513.88
2018-12-30T23:29:53.494Z,101511.23
2018-12-30T23:32:56.512Z,101511.66
2018-12-30T23:35:59.805Z,101517.87
2018-12-30T23:39:05.074Z,101513.88
2018-12-30T23:42:09.084Z,101516.96
2018-12-30T23:45:12.695Z,101514.36
2018-12-30T23:48:15.899Z,101523.14
2018-12-30T23:51:18.842Z,101523.64
2018-12-30T23:54:21.777Z,101521.94
2018-12-30T23:57:24.692Z,101526.31
